Time;durP1;ratioP1;P1;durP2;ratioP2;P2;SDS_P1;SDS_P2;PMS_P1;PMS_P2;Temp;Humidity;BMP_temperature;BMP_pressure;BME280_temperature;BME280_humidity;BME280_pressure;Samples;Min_cycle;Max_cycle;Signal;HPM_P1;HPM_P2
2021/07/05 00:02:07;;;;;;;;;2.25;2.00;;;;;20.19;58.61;100311.06;5078082;28;45913;-82
2021/07/05 00:04:33;;;;;;;;;4.25;2.50;;;;;20.17;58.43;100313.88;5072323;28;46342;-79
2021/07/05 00:06:58;;;;;;;;;1.50;1.50;;;;;20.15;58.26;100312.41;5070765;28;45661;-82
2021/07/05 00:09:23;;;;;;;;;3.00;3.00;;;;;20.06;58.28;100293.84;5071494;28;45845;-83
2021/07/05 00:11:49;;;;;;;;;2.50;2.00;;;;;20.05;58.09;100299.34;5061416;28;45839;-83
2021/07/05 00:14:14;;;;;;;;;2.25;1.75;;;;;20.03;58.17;100291.53;5065094;28;45678;-83
2021/07/05 00:16:40;;;;;;;;;2.25;2.00;;;;;20.09;58.22;100290.00;5062925;28;45649;-80
2021/07/05 00:19:06;;;;;;;;;1.00;1.00;;;;;20.09;57.96;100290.81;5067835;28;45910;-81
2021/07/05 00:21:31;;;;;;;;;3.50;2.00;;;;;20.04;58.26;100287.03;5054180;28;45757;-85
2021/07/05 00:23:56;;;;;;;;;2.75;2.00;;;;;20.05;58.03;100286.03;5041713;28;46572;-80
2021/07/05 00:26:22;;;;;;;;;2.00;1.00;;;;;19.95;57.87;100294.28;5065116;28;45674;-82
2021/07/05 00:28:47;;;;;;;;;2.00;2.00;;;;;19.99;58.04;100314.19;5058700;28;46073;-81
2021/07/05 00:31:13;;;;;;;;;1.00;1.00;;;;;19.97;58.07;100297.56;5038678;28;45958;-83
2021/07/05 00:33:38;;;;;;;;;2.25;1.50;;;;;19.98;57.98;100309.84;5066540;28;48832;-81
2021/07/05 00:36:04;;;;;;;;;4.00;2.50;;;;;19.92;57.93;100310.56;5073497;28;45806;-82
2021/07/05 00:38:31;;;;;;;;;3.00;2.00;;;;;19.95;58.25;100314.72;5063585;28;45712;-81
2021/07/05 00:40:56;;;;;;;;;1.75;1.75;;;;;19.86;58.08;100302.50;5062984;28;45651;-82
2021/07/05 00:43:21;;;;;;;;;2.00;1.75;;;;;19.91;58.11;100302.78;5067940;28;46488;-85
2021/07/05 00:45:47;;;;;;;;;3.00;2.25;;;;;19.80;58.24;100285.41;5061904;28;45761;-78
2021/07/05 00:48:13;;;;;;;;;2.75;1.75;;;;;19.91;58.01;100305.44;5050187;28;45749;-77
2021/07/05 00:50:38;;;;;;;;;2.00;2.00;;;;;19.88;58.33;100297.78;5062684;28;45830;-82
2021/07/05 00:53:04;;;;;;;;;1.50;1.50;;;;;19.76;57.89;100284.06;5055844;28;45668;-84
2021/07/05 00:55:32;;;;;;;;;3.00;2.25;;;;;19.80;58.19;100295.22;5061755;28;46420;-82
2021/07/05 00:57:57;;;;;;;;;1.75;1.50;;;;;19.77;57.93;100303.53;5065090;28;45795;-82
2021/07/05 01:00:25;;;;;;;;;2.00;2.00;;;;;19.76;58.35;100305.34;5076272;28;45584;-82
2021/07/05 01:02:51;;;;;;;;;1.50;1.50;;;;;19.73;57.74;100295.06;5045538;28;45914;-80
2021/07/05 01:05:18;;;;;;;;;3.25;1.50;;;;;19.69;58.26;100277.84;5057862;28;47459;-82
2021/07/05 01:07:45;;;;;;;;;3.00;1.75;;;;;19.70;58.08;100269.66;5057396;28;46033;-81
2021/07/05 01:10:12;;;;;;;;;2.00;2.00;;;;;19.71;58.02;100267.84;5080204;27;45695;-81
2021/07/05 01:12:38;;;;;;;;;2.25;1.50;;;;;19.69;58.42;100265.38;5078275;28;47389;-83
2021/07/05 01:15:09;;;;;;;;;3.75;2.50;;;;;19.64;58.04;100264.25;5077063;28;45725;-83
2021/07/05 01:17:34;;;;;;;;;2.50;2.00;;;;;19.67;58.27;100267.38;5076976;28;45740;-83
2021/07/05 01:20:00;;;;;;;;;2.00;1.00;;;;;19.60;58.32;100242.47;5082899;28;45440;-83
2021/07/05 01:22:25;;;;;;;;;2.25;1.50;;;;;19.68;57.97;100245.09;5064883;28;46398;-81
2021/07/05 01:24:51;;;;;;;;;2.50;2.50;;;;;19.66;57.93;100236.47;5080496;28;46963;-80
2021/07/05 01:27:17;;;;;;;;;1.50;1.50;;;;;19.60;58.26;100231.84;5079745;28;45708;-81
2021/07/05 01:29:43;;;;;;;;;1.00;1.00;;;;;19.64;58.14;100237.66;5068917;28;45568;-84
2021/07/05 01:32:10;;;;;;;;;3.75;1.75;;;;;19.59;58.58;100240.84;5068046;28;47569;-82
2021/07/05 01:34:36;;;;;;;;;2.25;1.75;;;;;19.64;58.45;100243.81;5071495;28;46218;-84
2021/07/05 01:37:03;;;;;;;;;1.50;1.50;;;;;19.66;58.43;100251.59;5062271;28;45868;-82
2021/07/05 01:39:29;;;;;;;;;1.75;1.50;;;;;19.65;58.58;100237.47;5082561;28;45676;-84
2021/07/05 01:41:54;;;;;;;;;1.50;1.50;;;;;19.61;58.40;100244.16;5048987;28;48612;-81
2021/07/05 01:44:19;;;;;;;;;2.50;1.75;;;;;19.62;58.45;100258.25;5077356;28;45703;-85
2021/07/05 01:46:45;;;;;;;;;1.50;1.50;;;;;19.64;58.70;100266.91;5073396;28;46143;-83
2021/07/05 01:49:11;;;;;;;;;2.00;1.50;;;;;19.51;58.36;100250.69;5071472;28;47496;-81
2021/07/05 01:51:37;;;;;;;;;1.50;1.50;;;;;19.61;58.34;100260.09;5074599;28;46686;-83
2021/07/05 01:54:03;;;;;;;;;1.75;1.75;;;;;19.59;58.65;100256.81;5073652;27;48144;-82
2021/07/05 01:56:29;;;;;;;;;1.25;1.25;;;;;19.50;58.41;100251.69;5074487;27;46052;-82
2021/07/05 01:58:54;;;;;;;;;0.75;0.75;;;;;19.43;58.76;100251.56;5075115;28;45825;-81
2021/07/05 02:01:20;;;;;;;;;2.25;2.25;;;;;19.48;59.01;100246.56;5073879;28;47369;-83
2021/07/05 02:03:45;;;;;;;;;1.00;1.00;;;;;19.43;58.57;100232.94;5070462;28;45789;-84
2021/07/05 02:06:11;;;;;;;;;3.25;2.25;;;;;19.48;58.88;100253.72;5074328;28;45764;-84
2021/07/05 02:08:37;;;;;;;;;2.75;1.50;;;;;19.39;58.51;100252.03;5052822;28;46208;-82
2021/07/05 02:11:03;;;;;;;;;1.25;1.25;;;;;19.42;59.14;100262.34;5073215;28;45730;-81
2021/07/05 02:13:31;;;;;;;;;2.00;1.00;;;;;19.42;59.12;100262.34;5072356;28;46593;-83
2021/07/05 02:15:59;;;;;;;;;2.00;2.00;;;;;19.37;58.70;100254.06;5060943;28;45814;-80
2021/07/05 02:18:28;;;;;;;;;2.75;2.00;;;;;19.32;59.17;100245.81;5073378;28;45779;-81
2021/07/05 02:20:54;;;;;;;;;3.00;2.00;;;;;19.36;59.10;100260.38;5074101;28;47606;-83
2021/07/05 02:23:22;;;;;;;;;2.00;2.00;;;;;19.32;58.81;100256.44;5073457;28;46170;-82
2021/07/05 02:25:49;;;;;;;;;3.00;2.00;;;;;19.31;59.11;100247.63;5062961;28;46178;-81
2021/07/05 02:28:21;;;;;;;;;4.00;2.00;;;;;19.38;58.76;100243.25;5062691;28;45827;-83
2021/07/05 02:30:48;;;;;;;;;3.75;3.00;;;;;19.38;59.19;100248.56;5059949;28;45683;-85
2021/07/05 02:33:16;;;;;;;;;3.00;3.00;;;;;19.35;59.12;100243.59;5067417;28;46452;-82
2021/07/05 02:35:41;;;;;;;;;2.50;2.00;;;;;19.35;58.82;100237.47;5061838;28;45727;-83
2021/07/05 02:38:09;;;;;;;;;3.00;3.00;;;;;19.38;59.50;100237.13;5069789;28;45715;-83
2021/07/05 02:40:40;;;;;;;;;2.75;2.00;;;;;19.33;59.34;100223.50;5061690;28;45565;-83
2021/07/05 02:43:05;;;;;;;;;1.75;1.50;;;;;19.35;58.95;100219.69;5071339;28;46193;-82
2021/07/05 02:45:34;;;;;;;;;1.50;1.50;;;;;19.34;59.33;100210.06;5062215;28;45742;-82
2021/07/05 02:48:06;;;;;;;;;3.50;3.00;;;;;19.34;59.67;100206.59;5070612;28;45967;-81
2021/07/05 02:50:32;;;;;;;;;3.00;3.00;;;;;19.21;59.32;100185.91;5074231;27;46701;-82
2021/07/05 02:52:58;;;;;;;;;2.75;2.25;;;;;19.25;59.57;100196.03;5073606;28;45593;-80
2021/07/05 02:55:24;;;;;;;;;3.50;2.00;;;;;19.28;59.68;100190.34;5073222;28;45789;-82
2021/07/05 02:57:49;;;;;;;;;2.00;2.00;;;;;19.35;59.40;100198.44;5074010;28;45683;-81
2021/07/05 03:00:25;;;;;;;;;2.25;1.75;;;;;19.33;59.41;100197.78;5071279;28;45899;-80
2021/07/05 03:02:52;;;;;;;;;2.25;2.00;;;;;19.18;59.38;100173.81;5071839;28;45682;-82
2021/07/05 03:05:20;;;;;;;;;2.25;2.00;;;;;19.23;60.08;100174.09;5053599;28;45624;-81
2021/07/05 03:07:46;;;;;;;;;3.00;2.00;;;;;19.25;59.97;100171.28;5073611;28;45692;-80
2021/07/05 03:10:16;;;;;;;;;2.00;2.00;;;;;19.32;59.67;100176.72;5075349;28;47380;-81
2021/07/05 03:12:42;;;;;;;;;2.00;2.00;;;;;19.35;60.03;100184.31;5075121;28;47262;-82
2021/07/05 03:15:10;;;;;;;;;1.25;1.25;;;;;19.32;60.29;100179.38;5073856;28;45723;-82
2021/07/05 03:17:37;;;;;;;;;4.00;3.75;;;;;19.34;60.41;100183.50;5077198;28;45854;-83
2021/07/05 03:20:12;;;;;;;;;3.50;2.75;;;;;19.28;60.24;100173.56;5067616;27;45783;-80
2021/07/05 03:22:37;;;;;;;;;3.50;3.00;;;;;19.30;60.16;100176.88;5081637;28;46029;-83
2021/07/05 03:25:05;;;;;;;;;2.75;2.75;;;;;19.34;60.65;100186.16;5079669;28;45652;-79
2021/07/05 03:27:31;;;;;;;;;1.75;1.50;;;;;19.24;60.66;100166.97;5079121;28;45412;-80
2021/07/05 03:29:56;;;;;;;;;2.00;2.00;;;;;19.34;60.71;100180.84;5075749;28;46161;-81
2021/07/05 03:32:22;;;;;;;;;2.00;2.00;;;;;19.33;60.75;100173.03;5055981;28;46052;-83
2021/07/05 03:34:48;;;;;;;;;3.50;3.50;;;;;19.29;60.76;100164.59;5072466;28;45759;-82
2021/07/05 03:37:14;;;;;;;;;2.75;2.75;;;;;19.28;60.88;100161.13;5073038;28;45654;-81
2021/07/05 03:39:39;;;;;;;;;1.75;1.50;;;;;19.31;60.60;100167.09;5072241;28;45867;-81
2021/07/05 03:42:04;;;;;;;;;4.50;3.00;;;;;19.26;61.19;100164.97;5072010;28;45896;-82
2021/07/05 03:44:30;;;;;;;;;4.00;3.00;;;;;19.27;61.28;100159.47;5072205;28;45721;-82
2021/07/05 03:46:55;;;;;;;;;1.50;1.00;;;;;19.21;61.42;100152.22;5070445;28;45971;-80
2021/07/05 03:49:21;;;;;;;;;3.50;2.50;;;;;19.20;61.34;100152.38;5071891;28;46339;-82
2021/07/05 03:51:47;;;;;;;;;3.50;2.50;;;;;19.22;61.49;100158.34;5071551;28;45801;-82
2021/07/05 03:54:13;;;;;;;;;4.25;3.00;;;;;19.16;61.84;100153.75;5070998;28;46060;-80
2021/07/05 03:56:38;;;;;;;;;4.25;3.25;;;;;19.15;61.22;100146.78;5067948;28;46239;-83
2021/07/05 03:59:04;;;;;;;;;2.75;2.75;;;;;19.22;61.95;100147.72;5072029;28;45752;-81
2021/07/05 04:01:30;;;;;;;;;2.75;2.75;;;;;19.22;61.55;100147.72;5072290;28;46056;-80
2021/07/05 04:03:55;;;;;;;;;3.00;3.00;;;;;19.18;62.11;100119.84;5070706;28;45566;-81
2021/07/05 04:06:21;;;;;;;;;2.50;2.50;;;;;19.13;61.71;100108.94;5062704;28;45870;-82
2021/07/05 04:08:46;;;;;;;;;3.00;2.25;;;;;19.18;61.96;100120.69;5071539;28;46271;-80
2021/07/05 04:11:12;;;;;;;;;3.25;2.50;;;;;19.05;62.23;100087.75;5071923;28;46066;-82
2021/07/05 04:13:37;;;;;;;;;2.25;2.25;;;;;19.15;62.48;100105.13;5071203;28;46109;-79
2021/07/05 04:16:03;;;;;;;;;2.00;2.00;;;;;19.18;61.90;100109.22;5062908;28;46118;-82
2021/07/05 04:18:28;;;;;;;;;2.00;1.75;;;;;19.01;62.46;100075.81;5063987;28;46218;-82
2021/07/05 04:20:54;;;;;;;;;2.00;2.00;;;;;19.09;62.11;100089.06;5065064;28;46585;-82
2021/07/05 04:23:20;;;;;;;;;2.00;1.50;;;;;18.94;62.71;100070.41;5071044;28;45734;-80
2021/07/05 04:25:46;;;;;;;;;2.25;1.75;;;;;19.11;62.72;100090.50;5071126;28;45910;-81
2021/07/05 04:28:12;;;;;;;;;3.00;3.00;;;;;19.00;62.69;100085.59;5071118;28;45838;-80
2021/07/05 04:30:38;;;;;;;;;3.00;3.00;;;;;18.91;62.51;100077.88;5068742;28;46074;-82
2021/07/05 04:33:04;;;;;;;;;3.00;3.00;;;;;19.07;62.73;100101.66;5069793;28;45776;-82
2021/07/05 04:35:31;;;;;;;;;4.00;2.00;;;;;19.02;62.93;100093.41;5070180;28;46021;-80
2021/07/05 04:37:58;;;;;;;;;3.25;3.00;;;;;19.07;62.73;100106.97;5071863;28;46390;-79
2021/07/05 04:40:35;;;;;;;;;3.00;2.25;;;;;19.05;63.06;100104.53;5069138;28;46769;-79
2021/07/05 04:43:01;;;;;;;;;3.25;3.25;;;;;19.03;62.68;100097.72;5051265;28;45853;-79
2021/07/05 04:45:29;;;;;;;;;4.50;3.50;;;;;19.03;62.89;100105.69;5071433;28;45785;-78
2021/07/05 04:47:56;;;;;;;;;3.25;3.00;;;;;19.00;63.09;100098.09;5070177;28;46427;-79
2021/07/05 04:50:22;;;;;;;;;3.25;1.50;;;;;18.81;62.98;100062.19;5071254;28;45669;-82
2021/07/05 04:52:48;;;;;;;;;1.75;1.50;;;;;19.00;63.36;100084.81;5071897;28;45672;-80
2021/07/05 04:55:16;;;;;;;;;3.00;3.00;;;;;18.94;63.23;100064.28;5054925;28;46017;-80
2021/07/05 04:57:43;;;;;;;;;1.50;1.50;;;;;18.96;63.27;100056.94;5072620;28;46430;-80
2021/07/05 05:00:13;;;;;;;;;2.00;2.00;;;;;18.87;63.48;100037.59;5072742;28;46234;-80
2021/07/05 05:02:38;;;;;;;;;3.00;2.00;;;;;18.69;63.52;99998.06;5074943;28;45811;-81
2021/07/05 05:05:07;;;;;;;;;2.25;2.25;;;;;18.87;63.60;100016.34;5078483;28;45715;-79
2021/07/05 05:07:33;;;;;;;;;2.00;2.00;;;;;18.83;63.26;100007.94;5077513;28;45743;-80
2021/07/05 05:10:01;;;;;;;;;2.00;2.00;;;;;18.78;63.39;100012.13;5076378;28;46638;-80
2021/07/05 05:12:28;;;;;;;;;2.75;2.00;;;;;18.74;64.02;100014.28;5077613;28;46001;-78
2021/07/05 05:14:55;;;;;;;;;1.00;1.00;;;;;18.75;63.51;100015.09;5070913;28;45668;-78
2021/07/05 05:17:20;;;;;;;;;1.50;1.00;;;;;18.73;63.46;100009.16;5070983;28;45739;-79
2021/07/05 05:19:46;;;;;;;;;4.50;3.00;;;;;18.63;63.48;100009.38;5070539;28;46203;-80
2021/07/05 05:22:11;;;;;;;;;31.00;29.25;;;;;18.65;64.06;99993.28;5052162;28;46002;-80
2021/07/05 05:24:37;;;;;;;;;8.00;7.25;;;;;18.71;63.44;99993.41;5070989;28;45835;-81
2021/07/05 05:27:02;;;;;;;;;1.00;1.00;;;;;18.60;64.21;99982.38;5069921;28;45787;-80
2021/07/05 05:29:28;;;;;;;;;6.50;5.50;;;;;18.70;63.71;100005.03;5071278;28;46040;-81
2021/07/05 05:31:53;;;;;;;;;2.00;2.00;;;;;18.67;63.58;99996.59;5071265;28;45948;-82
2021/07/05 05:34:19;;;;;;;;;6.00;5.25;;;;;18.61;63.63;99984.03;5074546;28;45882;-82
2021/07/05 05:36:44;;;;;;;;;13.50;12.50;;;;;18.71;63.93;100008.50;5071177;28;45576;-81
2021/07/05 05:39:09;;;;;;;;;3.50;3.50;;;;;18.72;64.00;99986.28;5069659;28;46147;-84
2021/07/05 05:41:35;;;;;;;;;18.00;17.00;;;;;18.71;64.49;99993.41;5068515;28;45799;-81
2021/07/05 05:44:01;;;;;;;;;12.50;11.50;;;;;18.65;64.43;99995.94;5055759;28;45689;-82
2021/07/05 05:46:32;;;;;;;;;27.25;24.75;;;;;18.69;63.93;100005.19;5072975;28;45976;-84
2021/07/05 05:48:59;;;;;;;;;6.00;5.25;;;;;18.70;64.53;100020.94;5055927;28;47829;-84
2021/07/05 05:51:30;;;;;;;;;13.50;13.50;;;;;18.71;64.06;100038.53;5069417;28;45784;-84
2021/07/05 05:53:56;;;;;;;;;4.50;4.00;;;;;18.74;64.48;100026.72;5073819;28;45763;-81
2021/07/05 05:56:21;;;;;;;;;8.25;7.75;;;;;18.75;64.33;100029.19;5071581;28;46452;-81
2021/07/05 05:58:47;;;;;;;;;8.50;7.50;;;;;18.79;64.22;100042.94;5075157;28;45773;-82
2021/07/05 06:01:12;;;;;;;;;8.25;7.50;;;;;18.80;64.63;100037.47;5070032;28;46073;-83
2021/07/05 06:03:38;;;;;;;;;19.25;14.75;;;;;18.80;64.18;100036.63;5062971;28;45841;-77
2021/07/05 06:06:03;;;;;;;;;8.50;8.50;;;;;18.81;64.68;100031.16;5070455;28;46750;-78
2021/07/05 06:08:28;;;;;;;;;8.00;8.00;;;;;18.85;64.66;100037.75;5072648;28;46266;-81
2021/07/05 06:10:54;;;;;;;;;14.25;12.50;;;;;18.84;64.40;100036.09;5070811;28;46141;-78
2021/07/05 06:13:20;;;;;;;;;13.50;10.75;;;;;18.85;64.40;100026.31;5074278;28;45649;-78
2021/07/05 06:15:45;;;;;;;;;17.50;15.00;;;;;18.92;64.10;100029.09;5073440;28;46004;-79
2021/07/05 06:18:11;;;;;;;;;6.50;6.00;;;;;18.98;64.37;100033.69;5074235;28;46017;-81
2021/07/05 06:20:36;;;;;;;;;7.75;6.75;;;;;19.00;64.25;100029.06;5074857;28;45661;-78
2021/07/05 06:23:03;;;;;;;;;4.75;4.75;;;;;18.88;64.56;100009.22;5074486;28;45723;-79
2021/07/05 06:25:29;;;;;;;;;2.50;2.50;;;;;19.04;64.36;100023.22;5068592;28;47303;-79
2021/07/05 06:27:54;;;;;;;;;8.25;8.25;;;;;19.08;64.16;100035.13;5074367;28;46114;-77
2021/07/05 06:30:19;;;;;;;;;4.50;4.50;;;;;19.10;64.67;100026.97;5074132;28;45879;-78
2021/07/05 06:32:45;;;;;;;;;4.50;4.00;;;;;19.11;63.94;100029.44;5074411;28;45948;-79
2021/07/05 06:35:12;;;;;;;;;5.75;5.75;;;;;19.09;64.58;100018.19;5073151;28;46259;-78
2021/07/05 06:37:37;;;;;;;;;4.00;4.00;;;;;19.07;64.01;100003.41;5074285;28;46160;-78
2021/07/05 06:40:06;;;;;;;;;5.50;4.75;;;;;19.11;64.18;100010.03;5072719;28;45715;-78
2021/07/05 06:42:33;;;;;;;;;5.25;4.75;;;;;19.04;64.27;99988.69;5074436;28;45635;-78
2021/07/05 06:44:59;;;;;;;;;16.75;16.75;;;;;19.27;64.30;100008.06;5072601;28;45620;-79
2021/07/05 06:47:24;;;;;;;;;5.00;5.00;;;;;19.33;64.60;100005.69;5075364;28;46266;-78
2021/07/05 06:49:49;;;;;;;;;5.00;4.50;;;;;19.34;64.20;99996.72;5073751;28;45679;-77
2021/07/05 06:52:15;;;;;;;;;20.00;18.50;;;;;19.42;64.25;100008.09;5079614;27;46197;-77
2021/07/05 06:54:41;;;;;;;;;5.50;5.00;;;;;19.44;64.20;100013.22;5080320;28;46346;-77
2021/07/05 06:57:06;;;;;;;;;6.75;5.75;;;;;19.49;64.29;100018.84;5079356;28;45988;-78
2021/07/05 06:59:32;;;;;;;;;4.00;4.00;;;;;19.48;64.05;100018.03;5080528;28;46143;-77
2021/07/05 07:01:57;;;;;;;;;5.00;5.00;;;;;19.48;64.33;100031.31;5077457;28;45761;-79
2021/07/05 07:04:22;;;;;;;;;5.00;4.75;;;;;19.35;64.47;100006.34;5074316;28;45656;-78
2021/07/05 07:06:49;;;;;;;;;8.50;7.50;;;;;19.49;64.25;100032.97;5073756;28;45691;-77
2021/07/05 07:09:17;;;;;;;;;6.00;5.00;;;;;19.41;64.32;100019.72;5073153;28;45886;-77
2021/07/05 07:11:44;;;;;;;;;5.75;5.50;;;;;19.57;64.07;100040.03;5073988;28;45680;-78
2021/07/05 07:14:11;;;;;;;;;9.75;8.25;;;;;19.60;64.24;100031.69;5060139;28;45603;-77
2021/07/05 07:16:42;;;;;;;;;6.00;6.00;;;;;19.61;64.18;100038.66;5062693;28;46272;-77
2021/07/05 07:21:34;;;;;;;;;7.25;6.50;;;;;19.66;63.92;100042.44;5073257;28;46009;-78
2021/07/05 07:23:59;;;;;;;;;6.00;5.00;;;;;19.69;64.11;100035.94;5056122;28;46176;-78
2021/07/05 07:26:25;;;;;;;;;7.00;6.00;;;;;19.65;64.10;100024.81;5053222;28;46654;-77
2021/07/05 07:28:52;;;;;;;;;7.50;6.75;;;;;19.74;64.13;100030.06;5067425;28;45679;-78
2021/07/05 07:31:19;;;;;;;;;6.75;6.00;;;;;19.77;64.12;100035.84;5072497;28;45798;-78
2021/07/05 07:33:44;;;;;;;;;4.75;4.75;;;;;19.65;63.96;100008.88;5068685;28;46572;-78
2021/07/05 07:36:10;;;;;;;;;7.50;7.50;;;;;19.81;63.98;100036.31;5065457;28;46327;-77
2021/07/05 07:38:43;;;;;;;;;24.50;23.25;;;;;19.87;64.05;100047.03;5055062;28;45640;-78
2021/07/05 07:41:09;;;;;;;;;8.25;7.25;;;;;19.89;63.86;100039.69;5061950;28;45694;-78
2021/07/05 07:43:34;;;;;;;;;9.75;8.50;;;;;19.89;63.81;100044.19;5073273;28;46609;-77
2021/07/05 07:46:00;;;;;;;;;7.00;6.75;;;;;19.90;63.61;100044.03;5072862;28;45626;-78
2021/07/05 07:48:26;;;;;;;;;5.75;4.50;;;;;19.95;63.78;100052.28;5071273;28;45719;-78
2021/07/05 07:50:51;;;;;;;;;3.75;3.00;;;;;19.88;63.69;100039.88;5074114;28;45933;-77
2021/07/05 07:53:17;;;;;;;;;5.25;4.25;;;;;19.96;63.74;100047.78;5073407;28;45583;-78
2021/07/05 07:55:43;;;;;;;;;7.25;5.50;;;;;19.94;63.83;100041.81;5074091;28;46043;-82
2021/07/05 07:58:08;;;;;;;;;4.25;4.00;;;;;19.98;63.55;100040.44;5078417;28;45537;-76
2021/07/05 08:00:34;;;;;;;;;4.00;4.00;;;;;19.98;63.69;100032.44;5078169;28;45570;-77
2021/07/05 08:06:22;;;;;;;;;4.00;4.00;;;;;20.00;63.75;100022.47;5076836;28;45723;-79
2021/07/05 08:08:51;;;;;;;;;6.25;4.75;;;;;20.01;63.73;100032.94;5078306;28;45507;-78
2021/07/05 08:11:17;;;;;;;;;5.25;5.00;;;;;19.99;63.95;100018.16;5076251;28;45568;-77
2021/07/05 08:13:42;;;;;;;;;4.00;3.25;;;;;20.07;63.82;100032.19;5077226;28;46512;-78
2021/07/05 08:16:08;;;;;;;;;4.25;4.00;;;;;20.13;63.72;100027.16;5078127;28;46510;-76
2021/07/05 08:18:33;;;;;;;;;5.25;5.00;;;;;20.17;63.74;100029.25;5079981;28;45563;-78
2021/07/05 08:20:59;;;;;;;;;3.00;3.00;;;;;20.23;63.71;100025.03;5080885;28;45590;-79
2021/07/05 08:23:24;;;;;;;;;7.75;7.75;;;;;20.26;63.52;100030.78;5079721;28;46499;-78
2021/07/05 08:25:49;;;;;;;;;5.50;5.00;;;;;20.30;63.83;100041.88;5077569;28;46273;-77
2021/07/05 08:28:15;;;;;;;;;6.00;4.75;;;;;20.34;63.71;100043.22;5078019;28;45459;-77
2021/07/05 08:30:41;;;;;;;;;5.50;5.00;;;;;20.35;63.64;100040.34;5077836;28;45503;-76
2021/07/05 08:36:28;;;;;;;;;4.00;4.00;;;;;20.44;63.58;100049.06;5079260;28;45919;-79
2021/07/05 08:38:54;;;;;;;;;3.25;3.25;;;;;20.48;63.42;100053.81;5079524;28;45613;-77
2021/07/05 08:41:20;;;;;;;;;3.75;3.00;;;;;20.50;63.43;100048.31;5080701;28;45689;-77
2021/07/05 08:43:47;;;;;;;;;3.25;3.00;;;;;20.52;63.42;100043.63;5078175;28;47402;-75
2021/07/05 08:46:21;;;;;;;;;2.25;2.25;;;;;20.53;63.41;100045.25;5075739;28;45971;-79
2021/07/05 08:48:47;;;;;;;;;3.00;3.00;;;;;20.57;63.43;100043.88;5075643;28;45529;-79
2021/07/05 08:51:18;;;;;;;;;3.00;2.00;;;;;20.63;63.37;100039.63;5073477;28;45807;-79
2021/07/05 08:53:47;;;;;;;;;2.75;2.75;;;;;20.65;63.43;100043.78;5075171;28;46225;-78
2021/07/05 08:56:13;;;;;;;;;2.25;2.25;;;;;20.64;63.21;100042.13;5075338;28;46172;-76
2021/07/05 08:58:40;;;;;;;;;2.00;2.00;;;;;20.63;62.98;100034.31;5074378;28;45637;-77
2021/07/05 09:01:07;;;;;;;;;2.75;2.00;;;;;20.56;62.96;100030.78;5056325;28;45900;-78
2021/07/05 09:07:02;;;;;;;;;3.00;1.50;;;;;20.48;62.54;100029.88;5074237;28;45511;-77
2021/07/05 09:09:28;;;;;;;;;3.50;3.50;;;;;20.59;62.87;100043.69;5074072;28;45474;-77
2021/07/05 09:12:01;;;;;;;;;2.00;2.00;;;;;20.63;62.85;100048.44;5073135;28;45565;-76
2021/07/05 09:14:27;;;;;;;;;3.00;2.00;;;;;20.61;62.90;100036.34;5074213;28;45612;-77
2021/07/05 09:16:53;;;;;;;;;2.00;2.00;;;;;20.73;62.81;100045.50;5072885;28;45605;-75
2021/07/05 09:19:32;;;;;;;;;3.00;2.00;;;;;20.75;62.92;100062.09;5077542;28;45573;-78
2021/07/05 09:22:00;;;;;;;;;2.00;2.00;;;;;20.78;62.56;100062.53;5077900;28;45614;-79
2021/07/05 09:24:44;;;;;;;;;1.25;1.00;;;;;20.72;62.36;100055.34;5059516;28;47337;-79
2021/07/05 09:27:11;;;;;;;;;1.00;1.00;;;;;20.76;62.48;100053.09;5077736;28;45850;-81
2021/07/05 09:29:42;;;;;;;;;1.75;1.75;;;;;20.74;62.67;100066.59;5076840;28;45494;-81
2021/07/05 09:32:13;;;;;;;;;3.00;2.25;;;;;20.73;62.51;100061.50;5059555;28;45808;-81
2021/07/05 09:34:44;;;;;;;;;2.00;2.00;;;;;20.67;62.38;100047.09;5076143;28;45802;-82
2021/07/05 09:37:27;;;;;;;;;2.50;2.00;;;;;20.72;62.31;100055.34;5077891;28;45698;-83
2021/07/05 09:40:08;;;;;;;;;2.00;1.50;;;;;20.76;62.70;100058.44;5077621;28;45701;-79
2021/07/05 09:42:46;;;;;;;;;1.00;1.00;;;;;20.74;62.34;100053.28;5077815;28;45629;-78
2021/07/05 09:45:13;;;;;;;;;2.25;2.25;;;;;20.83;62.40;100057.50;5058823;28;48157;-80
2021/07/05 09:47:39;;;;;;;;;3.00;2.00;;;;;20.87;62.50;100049.94;5077349;28;46423;-82
2021/07/05 09:50:16;;;;;;;;;2.00;2.00;;;;;20.82;62.24;100042.53;5077664;28;45714;-82
2021/07/05 09:52:43;;;;;;;;;1.50;1.00;;;;;20.99;62.22;100068.94;5077585;28;45648;-83
2021/07/05 09:55:11;;;;;;;;;2.00;1.25;;;;;21.01;62.26;100065.03;5077790;28;46359;-81
2021/07/05 09:57:45;;;;;;;;;1.00;1.00;;;;;21.03;61.81;100065.69;5077324;28;46636;-81
2021/07/05 10:00:14;;;;;;;;;2.25;2.00;;;;;21.02;62.00;100069.38;5077222;28;45722;-82
2021/07/05 10:03:04;;;;;;;;;1.25;1.25;;;;;20.94;61.96;100070.28;5077289;28;45687;-84
2021/07/05 10:05:35;;;;;;;;;1.00;1.00;;;;;20.91;61.71;100064.53;5077184;28;45689;-79
2021/07/05 10:08:08;;;;;;;;;1.75;1.50;;;;;20.97;62.11;100081.59;5077131;28;45485;-80
2021/07/05 10:10:37;;;;;;;;;1.00;1.00;;;;;20.94;61.58;100091.59;5077182;28;45756;-79
2021/07/05 10:13:05;;;;;;;;;0.50;0.50;;;;;20.90;61.76;100090.34;5077202;28;45720;-81
2021/07/05 10:15:32;;;;;;;;;1.00;1.00;;;;;20.91;61.99;100081.34;5077014;28;45649;-79
2021/07/05 10:17:58;;;;;;;;;1.00;1.00;;;;;20.92;61.84;100066.19;5077098;28;45894;-77
2021/07/05 10:20:28;;;;;;;;;1.00;1.00;;;;;20.96;61.55;100067.44;5076881;28;45714;-77
2021/07/05 10:22:56;;;;;;;;;1.00;1.00;;;;;21.02;61.97;100068.53;5076821;28;45575;-77
2021/07/05 10:25:23;;;;;;;;;1.00;1.00;;;;;21.08;62.06;100067.78;5076678;27;45634;-79
2021/07/05 10:27:50;;;;;;;;;1.00;1.00;;;;;21.09;61.70;100061.44;5078983;28;46207;-82
2021/07/05 10:30:18;;;;;;;;;1.00;1.00;;;;;21.12;61.47;100061.06;5079733;28;45499;-78
2021/07/05 10:32:46;;;;;;;;;2.25;2.00;;;;;21.18;61.44;100061.16;5077201;28;45610;-76
2021/07/05 10:35:13;;;;;;;;;1.00;1.00;;;;;21.26;61.69;100077.03;5079575;28;45567;-78
2021/07/05 10:37:39;;;;;;;;;2.00;1.75;;;;;21.33;61.30;100080.56;5064481;28;46120;-78
2021/07/05 10:40:07;;;;;;;;;0.75;0.75;;;;;21.40;61.10;100093.94;5080798;28;45683;-76
2021/07/05 10:42:35;;;;;;;;;1.00;1.00;;;;;21.46;60.97;100093.19;5079317;28;45683;-77
2021/07/05 10:45:08;;;;;;;;;2.25;1.75;;;;;21.50;60.69;100107.78;5076570;28;46995;-76
2021/07/05 10:47:42;;;;;;;;;1.00;1.00;;;;;21.55;60.32;100110.69;5076363;28;45937;-76
2021/07/05 10:50:08;;;;;;;;;1.00;1.00;;;;;21.59;60.76;100113.81;5076173;28;45675;-78
2021/07/05 10:52:50;;;;;;;;;1.50;1.00;;;;;21.61;60.35;100107.25;5076118;28;45513;-78
2021/07/05 10:55:40;;;;;;;;;1.00;1.00;;;;;21.66;60.73;100107.50;5075645;28;46393;-80
2021/07/05 10:58:25;;;;;;;;;0.00;0.00;;;;;21.70;60.20;100111.41;5076103;28;45995;-79
2021/07/05 11:00:57;;;;;;;;;1.00;1.00;;;;;21.70;60.71;100108.75;5075891;28;45751;-77
2021/07/05 11:03:38;;;;;;;;;2.00;1.00;;;;;21.75;60.67;100100.19;5076071;28;45695;-78
2021/07/05 11:06:11;;;;;;;;;1.00;1.00;;;;;21.72;60.26;100092.56;5075350;28;47501;-76
2021/07/05 11:08:42;;;;;;;;;0.50;0.50;;;;;21.78;60.02;100105.97;5075609;28;46554;-80
2021/07/05 11:11:10;;;;;;;;;2.00;1.00;;;;;21.80;59.85;100110.28;5075625;28;45556;-77
2021/07/05 11:13:40;;;;;;;;;0.50;0.50;;;;;21.79;59.67;100104.13;5076555;28;45549;-84
2021/07/05 11:16:06;;;;;;;;;2.50;2.00;;;;;21.88;59.81;100100.28;5075555;28;46342;-78
2021/07/05 11:21:23;;;;;;;;;2.00;2.00;;;;;21.99;59.81;100091.75;5075249;28;45705;-77
2021/07/05 11:24:08;;;;;;;;;2.00;1.00;;;;;22.05;59.55;100085.66;5075638;28;45630;-76
2021/07/05 11:26:37;;;;;;;;;1.00;1.00;;;;;22.06;59.11;100092.66;5075393;28;45650;-77
2021/07/05 11:29:14;;;;;;;;;1.25;1.00;;;;;22.13;58.83;100085.47;5075019;28;47179;-78
2021/07/05 11:31:56;;;;;;;;;1.00;0.00;;;;;22.19;58.28;100078.53;5075006;28;45728;-77
2021/07/05 11:34:47;;;;;;;;;2.25;1.00;;;;;22.27;57.79;100074.88;5074808;28;45544;-79
2021/07/05 11:37:21;;;;;;;;;0.25;0.25;;;;;22.34;57.86;100079.25;5075212;28;46305;-79
2021/07/05 11:39:50;;;;;;;;;1.00;1.00;;;;;22.43;57.58;100063.88;5074292;28;47215;-80
2021/07/05 11:42:30;;;;;;;;;2.00;2.00;;;;;22.51;57.39;100066.38;5075167;28;45727;-80